sensor_id;sensor_type;location;lat;lon;timestamp;temperature;humidity
30134;DHT22;16946;49.984;10.672;2022-12-11T00:00:23;-0.10;99.90
30134;DHT22;16946;49.984;10.672;2022-12-11T00:00:54;-0.10;99.90
30134;DHT22;16946;49.984;10.672;2022-12-11T00:01:25;-0.10;99.90
30134;DHT22;16946;49.984;10.672;2022-12-11T00:01:55;-0.10;99.90
30134;DHT22;16946;49.984;10.672;2022-12-11T00:02:27;-0.10;99.90
30134;DHT22;16946;49.984;10.672;2022-12-11T00:02:58;-0.10;99.90
30134;DHT22;16946;49.984;10.672;2022-12-11T00:03:29;-0.10;99.90
30134;DHT22;16946;49.984;10.672;2022-12-11T00:03:59;-0.10;99.90
30134;DHT22;16946;49.984;10.672;2022-12-11T00:04:30;-0.10;99.90
30134;DHT22;16946;49.984;10.672;2022-12-11T00:05:01;0.00;99.90
30134;DHT22;16946;49.984;10.672;2022-12-11T00:05:31;0.00;99.90
30134;DHT22;16946;49.984;10.672;2022-12-11T00:06:10;0.00;99.90
30134;DHT22;16946;49.984;10.672;2022-12-11T00:06:41;0.00;99.90
30134;DHT22;16946;49.984;10.672;2022-12-11T00:07:12;-0.10;99.90
30134;DHT22;16946;49.984;10.672;2022-12-11T00:07:42;-0.10;99.90
30134;DHT22;16946;49.984;10.672;2022-12-11T00:08:13;-0.10;99.90
30134;DHT22;16946;49.984;10.672;2022-12-11T00:08:44;-0.10;99.90
30134;DHT22;16946;49.984;10.672;2022-12-11T00:09:18;-0.20;99.90
30134;DHT22;16946;49.984;10.672;2022-12-11T00:09:49;-0.10;99.90
30134;DHT22;16946;49.984;10.672;2022-12-11T00:10:20;-0.20;99.90
30134;DHT22;16946;49.984;10.672;2022-12-11T00:10:50;-0.20;99.90
30134;DHT22;16946;49.984;10.672;2022-12-11T00:11:22;-0.20;99.90
30134;DHT22;16946;49.984;10.672;2022-12-11T00:11:52;-0.20;99.90
30134;DHT22;16946;49.984;10.672;2022-12-11T00:12:23;-0.20;99.90
30134;DHT22;16946;49.984;10.672;2022-12-11T00:12:53;-0.20;99.90
30134;DHT22;16946;49.984;10.672;2022-12-11T00:13:24;-0.20;99.90
30134;DHT22;16946;49.984;10.672;2022-12-11T00:13:54;-0.20;99.90
30134;DHT22;16946;49.984;10.672;2022-12-11T00:14:25;-0.20;99.90
30134;DHT22;16946;49.984;10.672;2022-12-11T00:14:55;-0.20;99.90
30134;DHT22;16946;49.984;10.672;2022-12-11T00:15:27;-0.10;99.90
30134;DHT22;16946;49.984;10.672;2022-12-11T00:15:58;-0.10;99.90
30134;DHT22;16946;49.984;10.672;2022-12-11T00:16:29;-0.20;99.90
30134;DHT22;16946;49.984;10.672;2022-12-11T00:16:59;-0.10;99.90
30134;DHT22;16946;49.984;10.672;2022-12-11T00:17:30;-0.10;99.90
30134;DHT22;16946;49.984;10.672;2022-12-11T00:18:00;-0.10;99.90
30134;DHT22;16946;49.984;10.672;2022-12-11T00:18:31;-0.10;99.90
30134;DHT22;16946;49.984;10.672;2022-12-11T00:19:01;-0.10;99.90
30134;DHT22;16946;49.984;10.672;2022-12-11T00:19:32;-0.10;99.90
30134;DHT22;16946;49.984;10.672;2022-12-11T00:20:03;0.00;99.90
30134;DHT22;16946;49.984;10.672;2022-12-11T00:20:34;0.00;99.90
30134;DHT22;16946;49.984;10.672;2022-12-11T00:21:07;0.00;99.90
30134;DHT22;16946;49.984;10.672;2022-12-11T00:21:38;0.00;99.90
30134;DHT22;16946;49.984;10.672;2022-12-11T00:22:09;0.00;99.90
30134;DHT22;16946;49.984;10.672;2022-12-11T00:22:39;0.00;99.90
30134;DHT22;16946;49.984;10.672;2022-12-11T00:23:10;-0.10;99.90
30134;DHT22;16946;49.984;10.672;2022-12-11T00:23:41;-0.10;99.90
30134;DHT22;16946;49.984;10.672;2022-12-11T00:24:12;-0.10;99.90
30134;DHT22;16946;49.984;10.672;2022-12-11T00:24:42;-0.10;99.90
30134;DHT22;16946;49.984;10.672;2022-12-11T00:25:13;-0.10;99.90
30134;DHT22;16946;49.984;10.672;2022-12-11T00:25:45;-0.10;99.90
30134;DHT22;16946;49.984;10.672;2022-12-11T00:26:16;-0.20;99.90
30134;DHT22;16946;49.984;10.672;2022-12-11T00:26:47;-0.10;99.90
30134;DHT22;16946;49.984;10.672;2022-12-11T00:27:17;-0.20;99.90
30134;DHT22;16946;49.984;10.672;2022-12-11T00:27:48;-0.20;99.90
30134;DHT22;16946;49.984;10.672;2022-12-11T00:28:19;-0.20;99.90
30134;DHT22;16946;49.984;10.672;2022-12-11T00:28:54;-0.20;99.90
30134;DHT22;16946;49.984;10.672;2022-12-11T00:29:25;-0.20;99.90
30134;DHT22;16946;49.984;10.672;2022-12-11T00:29:55;-0.10;99.90
30134;DHT22;16946;49.984;10.672;2022-12-11T00:30:26;-0.10;99.90
30134;DHT22;16946;49.984;10.672;2022-12-11T00:30:56;-0.20;99.90
30134;DHT22;16946;49.984;10.672;2022-12-11T00:31:27;-0.20;99.90
30134;DHT22;16946;49.984;10.672;2022-12-11T00:31:57;-0.20;99.90
30134;DHT22;16946;49.984;10.672;2022-12-11T00:32:28;-0.20;99.90
30134;DHT22;16946;49.984;10.672;2022-12-11T00:32:59;-0.20;99.90
30134;DHT22;16946;49.984;10.672;2022-12-11T00:33:29;-0.20;99.90
30134;DHT22;16946;49.984;10.672;2022-12-11T00:34:00;-0.30;99.90
30134;DHT22;16946;49.984;10.672;2022-12-11T00:34:31;-0.30;99.90
30134;DHT22;16946;49.984;10.672;2022-12-11T00:35:02;-0.30;99.90
30134;DHT22;16946;49.984;10.672;2022-12-11T00:35:33;-0.30;99.90
30134;DHT22;16946;49.984;10.672;2022-12-11T00:36:14;-0.30;99.90
30134;DHT22;16946;49.984;10.672;2022-12-11T00:36:45;-0.30;99.90
30134;DHT22;16946;49.984;10.672;2022-12-11T00:37:16;-0.30;99.90
30134;DHT22;16946;49.984;10.672;2022-12-11T00:37:46;-0.30;99.90
30134;DHT22;16946;49.984;10.672;2022-12-11T00:38:19;-0.30;99.90
30134;DHT22;16946;49.984;10.672;2022-12-11T00:38:51;-0.30;99.90
30134;DHT22;16946;49.984;10.672;2022-12-11T00:39:22;-0.40;99.90
30134;DHT22;16946;49.984;10.672;2022-12-11T00:39:52;-0.40;99.90
30134;DHT22;16946;49.984;10.672;2022-12-11T00:40:23;-0.40;99.90
30134;DHT22;16946;49.984;10.672;2022-12-11T00:40:57;-0.40;99.90
30134;DHT22;16946;49.984;10.672;2022-12-11T00:41:28;-0.40;99.90
30134;DHT22;16946;49.984;10.672;2022-12-11T00:41:59;-0.40;99.90
30134;DHT22;16946;49.984;10.672;2022-12-11T00:42:29;-0.50;99.90
30134;DHT22;16946;49.984;10.672;2022-12-11T00:43:00;-0.50;99.90
30134;DHT22;16946;49.984;10.672;2022-12-11T00:43:31;-0.50;99.90
30134;DHT22;16946;49.984;10.672;2022-12-11T00:44:01;-0.50;99.90
30134;DHT22;16946;49.984;10.672;2022-12-11T00:44:32;-0.50;99.90
30134;DHT22;16946;49.984;10.672;2022-12-11T00:45:03;-0.50;99.90
30134;DHT22;16946;49.984;10.672;2022-12-11T00:45:38;-0.50;99.90
30134;DHT22;16946;49.984;10.672;2022-12-11T00:46:10;-0.50;99.90
30134;DHT22;16946;49.984;10.672;2022-12-11T00:46:40;-0.50;99.90
30134;DHT22;16946;49.984;10.672;2022-12-11T00:47:11;-0.60;99.90
30134;DHT22;16946;49.984;10.672;2022-12-11T00:47:42;-0.60;99.90
30134;DHT22;16946;49.984;10.672;2022-12-11T00:48:13;-0.60;99.90
30134;DHT22;16946;49.984;10.672;2022-12-11T00:48:44;-0.60;99.90
30134;DHT22;16946;49.984;10.672;2022-12-11T00:49:15;-0.60;99.90
30134;DHT22;16946;49.984;10.672;2022-12-11T00:49:46;-0.60;99.90
30134;DHT22;16946;49.984;10.672;2022-12-11T00:50:16;-0.60;99.90
30134;DHT22;16946;49.984;10.672;2022-12-11T00:50:47;-0.60;99.90
30134;DHT22;16946;49.984;10.672;2022-12-11T00:51:18;-0.60;99.90
30134;DHT22;16946;49.984;10.672;2022-12-11T00:51:48;-0.60;99.90
30134;DHT22;16946;49.984;10.672;2022-12-11T00:52:19;-0.60;99.90
30134;DHT22;16946;49.984;10.672;2022-12-11T00:52:49;-0.60;99.90
30134;DHT22;16946;49.984;10.672;2022-12-11T00:53:20;-0.60;99.90
30134;DHT22;16946;49.984;10.672;2022-12-11T00:53:51;-0.70;99.90
30134;DHT22;16946;49.984;10.672;2022-12-11T00:54:22;-0.70;99.90
30134;DHT22;16946;49.984;10.672;2022-12-11T00:54:52;-0.70;99.90
30134;DHT22;16946;49.984;10.672;2022-12-11T00:55:23;-0.70;99.90
30134;DHT22;16946;49.984;10.672;2022-12-11T00:55:54;-0.70;99.90
30134;DHT22;16946;49.984;10.672;2022-12-11T00:56:25;-0.70;99.90
30134;DHT22;16946;49.984;10.672;2022-12-11T00:56:55;-0.70;99.90
30134;DHT22;16946;49.984;10.672;2022-12-11T00:57:26;-0.70;99.90
30134;DHT22;16946;49.984;10.672;2022-12-11T00:57:56;-0.80;99.90
30134;DHT22;16946;49.984;10.672;2022-12-11T00:58:30;-0.80;99.90
30134;DHT22;16946;49.984;10.672;2022-12-11T00:59:01;-0.80;99.90
30134;DHT22;16946;49.984;10.672;2022-12-11T00:59:31;-0.80;99.90
30134;DHT22;16946;49.984;10.672;2022-12-11T01:00:04;-0.80;99.90
30134;DHT22;16946;49.984;10.672;2022-12-11T01:00:36;-0.90;99.90
30134;DHT22;16946;49.984;10.672;2022-12-11T01:01:09;-0.90;99.90
30134;DHT22;16946;49.984;10.672;2022-12-11T01:01:40;-0.90;99.90
30134;DHT22;16946;49.984;10.672;2022-12-11T01:02:10;-0.90;99.90
30134;DHT22;16946;49.984;10.672;2022-12-11T01:02:41;-0.90;99.90
30134;DHT22;16946;49.984;10.672;2022-12-11T01:03:13;-0.90;99.90
30134;DHT22;16946;49.984;10.672;2022-12-11T01:03:44;-0.90;99.90
30134;DHT22;16946;49.984;10.672;2022-12-11T01:04:15;-0.90;99.90
30134;DHT22;16946;49.984;10.672;2022-12-11T01:04:45;-0.90;99.90
30134;DHT22;16946;49.984;10.672;2022-12-11T01:05:16;-0.90;99.90
30134;DHT22;16946;49.984;10.672;2022-12-11T01:05:51;-0.80;99.90
30134;DHT22;16946;49.984;10.672;2022-12-11T01:06:24;-0.80;99.90
30134;DHT22;16946;49.984;10.672;2022-12-11T01:06:55;-0.80;99.90
30134;DHT22;16946;49.984;10.672;2022-12-11T01:07:25;-0.90;99.90
30134;DHT22;16946;49.984;10.672;2022-12-11T01:07:56;-0.90;99.90
30134;DHT22;16946;49.984;10.672;2022-12-11T01:08:26;-0.90;99.90
30134;DHT22;16946;49.984;10.672;2022-12-11T01:08:57;-0.90;99.90
30134;DHT22;16946;49.984;10.672;2022-12-11T01:09:46;-0.90;99.90
30134;DHT22;16946;49.984;10.672;2022-12-11T01:10:35;-0.90;99.90
30134;DHT22;16946;49.984;10.672;2022-12-11T01:11:09;-0.90;99.90
30134;DHT22;16946;49.984;10.672;2022-12-11T01:11:41;-0.90;99.90
30134;DHT22;16946;49.984;10.672;2022-12-11T01:12:12;-0.90;99.90
30134;DHT22;16946;49.984;10.672;2022-12-11T01:12:43;-0.90;99.90
30134;DHT22;16946;49.984;10.672;2022-12-11T01:13:13;-0.90;99.90
30134;DHT22;16946;49.984;10.672;2022-12-11T01:13:44;-0.90;99.90
30134;DHT22;16946;49.984;10.672;2022-12-11T01:14:15;-0.90;99.90
30134;DHT22;16946;49.984;10.672;2022-12-11T01:14:46;-0.80;99.90
30134;DHT22;16946;49.984;10.672;2022-12-11T01:15:18;-0.90;99.90
30134;DHT22;16946;49.984;10.672;2022-12-11T01:15:49;-0.90;99.90
30134;DHT22;16946;49.984;10.672;2022-12-11T01:16:19;-0.90;99.90
30134;DHT22;16946;49.984;10.672;2022-12-11T01:16:50;-0.90;99.90
30134;DHT22;16946;49.984;10.672;2022-12-11T01:17:20;-0.80;99.90
30134;DHT22;16946;49.984;10.672;2022-12-11T01:17:51;-0.80;99.90
30134;DHT22;16946;49.984;10.672;2022-12-11T01:18:22;-0.80;99.90
30134;DHT22;16946;49.984;10.672;2022-12-11T01:18:53;-0.80;99.90
30134;DHT22;16946;49.984;10.672;2022-12-11T01:19:23;-0.80;99.90
30134;DHT22;16946;49.984;10.672;2022-12-11T01:19:54;-0.80;99.90
30134;DHT22;16946;49.984;10.672;2022-12-11T01:20:26;-0.80;99.90
30134;DHT22;16946;49.984;10.672;2022-12-11T01:20:57;-0.80;99.90
30134;DHT22;16946;49.984;10.672;2022-12-11T01:21:28;-0.80;99.90
30134;DHT22;16946;49.984;10.672;2022-12-11T01:21:58;-0.80;99.90
30134;DHT22;16946;49.984;10.672;2022-12-11T01:22:30;-0.80;99.90
30134;DHT22;16946;49.984;10.672;2022-12-11T01:23:01;-0.80;99.90
30134;DHT22;16946;49.984;10.672;2022-12-11T01:23:31;-0.90;99.90
30134;DHT22;16946;49.984;10.672;2022-12-11T01:24:02;-0.90;99.90
30134;DHT22;16946;49.984;10.672;2022-12-11T01:24:32;-0.90;99.90
30134;DHT22;16946;49.984;10.672;2022-12-11T01:25:03;-0.90;99.90
30134;DHT22;16946;49.984;10.672;2022-12-11T01:25:34;-0.90;99.90
30134;DHT22;16946;49.984;10.672;2022-12-11T01:26:12;-0.90;99.90
30134;DHT22;16946;49.984;10.672;2022-12-11T01:26:43;-0.90;99.90
30134;DHT22;16946;49.984;10.672;2022-12-11T01:27:14;-0.90;99.90
30134;DHT22;16946;49.984;10.672;2022-12-11T01:27:44;-0.90;99.90
30134;DHT22;16946;49.984;10.672;2022-12-11T01:28:15;-0.90;99.90
30134;DHT22;16946;49.984;10.672;2022-12-11T01:28:48;-0.90;99.90
30134;DHT22;16946;49.984;10.672;2022-12-11T01:29:19;-0.90;99.90
30134;DHT22;16946;49.984;10.672;2022-12-11T01:29:50;-0.90;99.90
30134;DHT22;16946;49.984;10.672;2022-12-11T01:30:22;-0.90;99.90
30134;DHT22;16946;49.984;10.672;2022-12-11T01:30:53;-0.90;99.90
30134;DHT22;16946;49.984;10.672;2022-12-11T01:31:23;-0.90;99.90
30134;DHT22;16946;49.984;10.672;2022-12-11T01:31:54;-1.00;99.90
30134;DHT22;16946;49.984;10.672;2022-12-11T01:32:25;-1.00;99.90
30134;DHT22;16946;49.984;10.672;2022-12-11T01:32:56;-1.00;99.90
30134;DHT22;16946;49.984;10.672;2022-12-11T01:33:27;-1.00;99.90
30134;DHT22;16946;49.984;10.672;2022-12-11T01:33:57;-1.00;99.90
30134;DHT22;16946;49.984;10.672;2022-12-11T01:34:29;-1.00;99.90
30134;DHT22;16946;49.984;10.672;2022-12-11T01:35:05;-1.00;99.90
30134;DHT22;16946;49.984;10.672;2022-12-11T01:35:37;-1.00;99.90
30134;DHT22;16946;49.984;10.672;2022-12-11T01:36:25;-1.00;99.90
30134;DHT22;16946;49.984;10.672;2022-12-11T01:36:56;-1.10;99.90
30134;DHT22;16946;49.984;10.672;2022-12-11T01:37:27;-1.10;99.90
30134;DHT22;16946;49.984;10.672;2022-12-11T01:37:57;-1.10;99.90
30134;DHT22;16946;49.984;10.672;2022-12-11T01:38:28;-1.10;99.90
30134;DHT22;16946;49.984;10.672;2022-12-11T01:38:59;-1.10;99.90
30134;DHT22;16946;49.984;10.672;2022-12-11T01:39:29;-1.10;99.90
30134;DHT22;16946;49.984;10.672;2022-12-11T01:40:01;-1.10;99.90
30134;DHT22;16946;49.984;10.672;2022-12-11T01:40:31;-1.10;99.90
30134;DHT22;16946;49.984;10.672;2022-12-11T01:41:02;-1.10;99.90
30134;DHT22;16946;49.984;10.672;2022-12-11T01:41:33;-1.10;99.90
30134;DHT22;16946;49.984;10.672;2022-12-11T01:42:04;-1.10;99.90
30134;DHT22;16946;49.984;10.672;2022-12-11T01:42:39;-1.00;99.90
30134;DHT22;16946;49.984;10.672;2022-12-11T01:43:10;-1.00;99.90
30134;DHT22;16946;49.984;10.672;2022-12-11T01:44:01;-1.00;99.90
30134;DHT22;16946;49.984;10.672;2022-12-11T01:45:15;-1.00;99.90
30134;DHT22;16946;49.984;10.672;2022-12-11T01:45:51;-1.00;99.90
30134;DHT22;16946;49.984;10.672;2022-12-11T01:46:22;-1.10;99.90
30134;DHT22;16946;49.984;10.672;2022-12-11T01:46:53;-1.10;99.90
30134;DHT22;16946;49.984;10.672;2022-12-11T01:47:24;-1.10;99.90
30134;DHT22;16946;49.984;10.672;2022-12-11T01:47:58;-1.10;99.90
30134;DHT22;16946;49.984;10.672;2022-12-11T01:48:31;-1.10;99.90
30134;DHT22;16946;49.984;10.672;2022-12-11T01:49:06;-1.10;99.90
30134;DHT22;16946;49.984;10.672;2022-12-11T01:49:39;-1.10;99.90
30134;DHT22;16946;49.984;10.672;2022-12-11T01:50:10;-1.20;99.90
30134;DHT22;16946;49.984;10.672;2022-12-11T01:50:48;-1.20;99.90
30134;DHT22;16946;49.984;10.672;2022-12-11T01:51:20;-1.20;99.90
30134;DHT22;16946;49.984;10.672;2022-12-11T01:52:07;-1.20;99.90
30134;DHT22;16946;49.984;10.672;2022-12-11T01:52:41;-1.20;99.90
30134;DHT22;16946;49.984;10.672;2022-12-11T01:53:16;-1.20;99.90
30134;DHT22;16946;49.984;10.672;2022-12-11T01:53:52;-1.20;99.90
30134;DHT22;16946;49.984;10.672;2022-12-11T01:54:25;-1.20;99.90
30134;DHT22;16946;49.984;10.672;2022-12-11T01:54:57;-1.20;99.90
30134;DHT22;16946;49.984;10.672;2022-12-11T01:55:27;-1.20;99.90
30134;DHT22;16946;49.984;10.672;2022-12-11T01:55:58;-1.20;99.90
30134;DHT22;16946;49.984;10.672;2022-12-11T01:56:31;-1.20;99.90
30134;DHT22;16946;49.984;10.672;2022-12-11T01:57:05;-1.20;99.90
30134;DHT22;16946;49.984;10.672;2022-12-11T01:57:40;-1.20;99.90
30134;DHT22;16946;49.984;10.672;2022-12-11T01:58:12;-1.20;99.90
30134;DHT22;16946;49.984;10.672;2022-12-11T01:58:48;-1.20;99.90
30134;DHT22;16946;49.984;10.672;2022-12-11T01:59:23;-1.20;99.90
30134;DHT22;16946;49.984;10.672;2022-12-11T01:59:55;-1.20;99.90
30134;DHT22;16946;49.984;10.672;2022-12-11T02:00:26;-1.20;99.90
30134;DHT22;16946;49.984;10.672;2022-12-11T02:00:57;-1.20;99.90
30134;DHT22;16946;49.984;10.672;2022-12-11T02:01:36;-1.20;99.90
30134;DHT22;16946;49.984;10.672;2022-12-11T02:02:20;-1.20;99.90
30134;DHT22;16946;49.984;10.672;2022-12-11T02:02:52;-1.20;99.90
30134;DHT22;16946;49.984;10.672;2022-12-11T02:03:23;-1.10;99.90
30134;DHT22;16946;49.984;10.672;2022-12-11T02:03:54;-1.10;99.90
30134;DHT22;16946;49.984;10.672;2022-12-11T02:04:25;-1.10;99.90
30134;DHT22;16946;49.984;10.672;2022-12-11T02:04:57;-1.10;99.90
30134;DHT22;16946;49.984;10.672;2022-12-11T02:05:27;-1.10;99.90
30134;DHT22;16946;49.984;10.672;2022-12-11T02:05:59;-1.10;99.90
30134;DHT22;16946;49.984;10.672;2022-12-11T02:06:37;-1.10;99.90
30134;DHT22;16946;49.984;10.672;2022-12-11T02:07:09;-1.10;99.90
30134;DHT22;16946;49.984;10.672;2022-12-11T02:07:45;-1.10;99.90
30134;DHT22;16946;49.984;10.672;2022-12-11T02:08:17;-1.20;99.90
30134;DHT22;16946;49.984;10.672;2022-12-11T02:08:47;-1.20;99.90
30134;DHT22;16946;49.984;10.672;2022-12-11T02:09:23;-1.30;99.90
30134;DHT22;16946;49.984;10.672;2022-12-11T02:09:54;-1.30;99.90
30134;DHT22;16946;49.984;10.672;2022-12-11T02:10:37;-1.30;99.90
30134;DHT22;16946;49.984;10.672;2022-12-11T02:11:19;-1.30;99.90
30134;DHT22;16946;49.984;10.672;2022-12-11T02:12:03;-1.30;99.90
30134;DHT22;16946;49.984;10.672;2022-12-11T02:13:22;-1.30;99.90
30134;DHT22;16946;49.984;10.672;2022-12-11T02:16:24;-1.30;99.90
30134;DHT22;16946;49.984;10.672;2022-12-11T02:17:03;-1.30;99.90
30134;DHT22;16946;49.984;10.672;2022-12-11T02:18:43;-1.30;99.90
30134;DHT22;16946;49.984;10.672;2022-12-11T02:19:48;-1.30;99.90
30134;DHT22;16946;49.984;10.672;2022-12-11T02:20:41;-1.30;99.90
30134;DHT22;16946;49.984;10.672;2022-12-11T02:21:34;-1.30;99.90
30134;DHT22;16946;49.984;10.672;2022-12-11T02:22:12;-1.30;99.90
30134;DHT22;16946;49.984;10.672;2022-12-11T02:23:43;-1.30;99.90
30134;DHT22;16946;49.984;10.672;2022-12-11T02:24:31;-1.30;99.90
30134;DHT22;16946;49.984;10.672;2022-12-11T02:26:01;-1.20;99.90
30134;DHT22;16946;49.984;10.672;2022-12-11T02:27:40;-1.20;99.90
30134;DHT22;16946;49.984;10.672;2022-12-11T02:28:16;-1.20;99.90
30134;DHT22;16946;49.984;10.672;2022-12-11T02:29:32;-1.30;99.90
30134;DHT22;16946;49.984;10.672;2022-12-11T02:30:08;-1.30;99.90
30134;DHT22;16946;49.984;10.672;2022-12-11T02:30:41;-1.30;99.90
30134;DHT22;16946;49.984;10.672;2022-12-11T02:31:33;-1.30;99.90
30134;DHT22;16946;49.984;10.672;2022-12-11T02:32:09;-1.30;99.90
30134;DHT22;16946;49.984;10.672;2022-12-11T02:32:55;-1.30;99.90
30134;DHT22;16946;49.984;10.672;2022-12-11T02:33:37;-1.30;99.90
30134;DHT22;16946;49.984;10.672;2022-12-11T02:34:19;-1.30;99.90
30134;DHT22;16946;49.984;10.672;2022-12-11T02:35:12;-1.20;99.90
30134;DHT22;16946;49.984;10.672;2022-12-11T02:35:44;-1.20;99.90
30134;DHT22;16946;49.984;10.672;2022-12-11T02:36:17;-1.20;99.90
30134;DHT22;16946;49.984;10.672;2022-12-11T02:36:57;-1.20;99.90
30134;DHT22;16946;49.984;10.672;2022-12-11T02:37:30;-1.20;99.90
30134;DHT22;16946;49.984;10.672;2022-12-11T02:38:06;-1.20;99.90
30134;DHT22;16946;49.984;10.672;2022-12-11T02:38:40;-1.20;99.90
30134;DHT22;16946;49.984;10.672;2022-12-11T02:39:13;-1.20;99.90
30134;DHT22;16946;49.984;10.672;2022-12-11T02:39:46;-1.20;99.90
30134;DHT22;16946;49.984;10.672;2022-12-11T02:40:21;-1.20;99.90
30134;DHT22;16946;49.984;10.672;2022-12-11T02:40:54;-1.20;99.90
30134;DHT22;16946;49.984;10.672;2022-12-11T02:41:27;-1.20;99.90
30134;DHT22;16946;49.984;10.672;2022-12-11T02:41:59;-1.10;99.90
30134;DHT22;16946;49.984;10.672;2022-12-11T02:42:32;-1.10;99.90
30134;DHT22;16946;49.984;10.672;2022-12-11T02:43:05;-1.10;99.90
30134;DHT22;16946;49.984;10.672;2022-12-11T02:43:38;-1.10;99.90
30134;DHT22;16946;49.984;10.672;2022-12-11T02:44:10;-1.20;99.90
30134;DHT22;16946;49.984;10.672;2022-12-11T02:44:43;-1.20;99.90
30134;DHT22;16946;49.984;10.672;2022-12-11T02:45:14;-1.20;99.90
30134;DHT22;16946;49.984;10.672;2022-12-11T02:45:47;-1.10;99.90
30134;DHT22;16946;49.984;10.672;2022-12-11T02:46:20;-1.10;99.90
30134;DHT22;16946;49.984;10.672;2022-12-11T02:46:52;-1.10;99.90
30134;DHT22;16946;49.984;10.672;2022-12-11T02:47:24;-1.20;99.90
30134;DHT22;16946;49.984;10.672;2022-12-11T02:47:57;-1.10;99.90
30134;DHT22;16946;49.984;10.672;2022-12-11T02:48:31;-1.20;99.90
30134;DHT22;16946;49.984;10.672;2022-12-11T02:49:04;-1.20;99.90
30134;DHT22;16946;49.984;10.672;2022-12-11T02:49:36;-1.20;99.90
30134;DHT22;16946;49.984;10.672;2022-12-11T02:50:10;-1.20;99.90
30134;DHT22;16946;49.984;10.672;2022-12-11T02:50:46;-1.20;99.90
30134;DHT22;16946;49.984;10.672;2022-12-11T02:51:21;-1.20;99.90
30134;DHT22;16946;49.984;10.672;2022-12-11T02:51:53;-1.10;99.90
30134;DHT22;16946;49.984;10.672;2022-12-11T02:52:26;-1.10;99.90
30134;DHT22;16946;49.984;10.672;2022-12-11T02:53:01;-1.10;99.90
30134;DHT22;16946;49.984;10.672;2022-12-11T02:53:34;-1.10;99.90
30134;DHT22;16946;49.984;10.672;2022-12-11T02:54:11;-1.10;99.90
30134;DHT22;16946;49.984;10.672;2022-12-11T02:54:43;-1.10;99.90
30134;DHT22;16946;49.984;10.672;2022-12-11T02:55:16;-1.10;99.90
30134;DHT22;16946;49.984;10.672;2022-12-11T02:55:49;-1.10;99.90
30134;DHT22;16946;49.984;10.672;2022-12-11T02:56:28;-1.00;99.90
30134;DHT22;16946;49.984;10.672;2022-12-11T02:57:11;-1.00;99.90
30134;DHT22;16946;49.984;10.672;2022-12-11T02:57:44;-1.00;99.90
30134;DHT22;16946;49.984;10.672;2022-12-11T02:58:21;-1.00;99.90
30134;DHT22;16946;49.984;10.672;2022-12-11T02:58:55;-1.00;99.90
30134;DHT22;16946;49.984;10.672;2022-12-11T02:59:34;-1.00;99.90
30134;DHT22;16946;49.984;10.672;2022-12-11T03:00:07;-1.00;99.90
30134;DHT22;16946;49.984;10.672;2022-12-11T03:00:38;-1.00;99.90
30134;DHT22;16946;49.984;10.672;2022-12-11T03:01:09;-0.90;99.90
30134;DHT22;16946;49.984;10.672;2022-12-11T03:01:39;-1.00;99.90
30134;DHT22;16946;49.984;10.672;2022-12-11T03:02:11;-0.90;99.90
30134;DHT22;16946;49.984;10.672;2022-12-11T03:02:42;-1.00;99.90
30134;DHT22;16946;49.984;10.672;2022-12-11T03:03:13;-0.90;99.90
30134;DHT22;16946;49.984;10.672;2022-12-11T03:03:44;-0.90;99.90
30134;DHT22;16946;49.984;10.672;2022-12-11T03:04:14;-0.90;99.90
30134;DHT22;16946;49.984;10.672;2022-12-11T03:04:46;-0.90;99.90
30134;DHT22;16946;49.984;10.672;2022-12-11T03:05:17;-0.90;99.90
30134;DHT22;16946;49.984;10.672;2022-12-11T03:05:47;-0.90;99.90
30134;DHT22;16946;49.984;10.672;2022-12-11T03:06:21;-0.90;99.90
30134;DHT22;16946;49.984;10.672;2022-12-11T03:06:55;-0.90;99.90
30134;DHT22;16946;49.984;10.672;2022-12-11T03:07:33;-0.90;99.90
30134;DHT22;16946;49.984;10.672;2022-12-11T03:08:04;-0.90;99.90
30134;DHT22;16946;49.984;10.672;2022-12-11T03:08:35;-0.90;99.90
30134;DHT22;16946;49.984;10.672;2022-12-11T03:09:06;-0.80;99.90
30134;DHT22;16946;49.984;10.672;2022-12-11T03:09:38;-0.80;99.90
30134;DHT22;16946;49.984;10.672;2022-12-11T03:10:12;-0.90;99.90
30134;DHT22;16946;49.984;10.672;2022-12-11T03:10:44;-0.80;99.90
30134;DHT22;16946;49.984;10.672;2022-12-11T03:11:15;-0.80;99.90
30134;DHT22;16946;49.984;10.672;2022-12-11T03:11:46;-0.80;99.90
30134;DHT22;16946;49.984;10.672;2022-12-11T03:12:19;-0.80;99.90
30134;DHT22;16946;49.984;10.672;2022-12-11T03:12:52;-0.80;99.90
30134;DHT22;16946;49.984;10.672;2022-12-11T03:13:23;-0.80;99.90
30134;DHT22;16946;49.984;10.672;2022-12-11T03:13:54;-0.70;99.90
30134;DHT22;16946;49.984;10.672;2022-12-11T03:14:24;-0.70;99.90
30134;DHT22;16946;49.984;10.672;2022-12-11T03:14:57;-0.80;99.90
30134;DHT22;16946;49.984;10.672;2022-12-11T03:15:56;-0.80;99.90
30134;DHT22;16946;49.984;10.672;2022-12-11T03:16:34;-0.80;99.90
30134;DHT22;16946;49.984;10.672;2022-12-11T03:18:45;-0.90;99.90
30134;DHT22;16946;49.984;10.672;2022-12-11T03:19:34;-0.90;99.90
30134;DHT22;16946;49.984;10.672;2022-12-11T03:20:28;-0.90;99.90
30134;DHT22;16946;49.984;10.672;2022-12-11T03:21:08;-0.90;99.90
30134;DHT22;16946;49.984;10.672;2022-12-11T03:21:48;-0.90;99.90
30134;DHT22;16946;49.984;10.672;2022-12-11T03:22:30;-0.90;99.90
30134;DHT22;16946;49.984;10.672;2022-12-11T03:23:07;-0.90;99.90
30134;DHT22;16946;49.984;10.672;2022-12-11T03:23:54;-0.90;99.90
30134;DHT22;16946;49.984;10.672;2022-12-11T03:24:39;-0.90;99.90
30134;DHT22;16946;49.984;10.672;2022-12-11T03:25:33;-0.90;99.90
30134;DHT22;16946;49.984;10.672;2022-12-11T03:26:09;-1.00;99.90
30134;DHT22;16946;49.984;10.672;2022-12-11T03:26:47;-1.00;99.90
30134;DHT22;16946;49.984;10.672;2022-12-11T03:28:20;-1.10;99.90
30134;DHT22;16946;49.984;10.672;2022-12-11T03:28:59;-1.20;99.90
30134;DHT22;16946;49.984;10.672;2022-12-11T03:29:38;-1.20;99.90
30134;DHT22;16946;49.984;10.672;2022-12-11T03:30:13;-1.20;99.90
30134;DHT22;16946;49.984;10.672;2022-12-11T03:30:48;-1.20;99.90
30134;DHT22;16946;49.984;10.672;2022-12-11T03:31:26;-1.20;99.90
30134;DHT22;16946;49.984;10.672;2022-12-11T03:32:12;-1.20;99.90
30134;DHT22;16946;49.984;10.672;2022-12-11T03:32:58;-1.20;99.90
30134;DHT22;16946;49.984;10.672;2022-12-11T03:33:34;-1.10;99.90
30134;DHT22;16946;49.984;10.672;2022-12-11T03:34:24;-1.10;99.90
30134;DHT22;16946;49.984;10.672;2022-12-11T03:35:44;-1.10;99.90
30134;DHT22;16946;49.984;10.672;2022-12-11T03:36:21;-1.00;99.90
30134;DHT22;16946;49.984;10.672;2022-12-11T03:36:54;-1.00;99.90
30134;DHT22;16946;49.984;10.672;2022-12-11T03:37:27;-1.00;99.90
30134;DHT22;16946;49.984;10.672;2022-12-11T03:38:05;-0.90;99.90
30134;DHT22;16946;49.984;10.672;2022-12-11T03:38:57;-0.80;99.90
30134;DHT22;16946;49.984;10.672;2022-12-11T03:39:39;-0.90;99.90
30134;DHT22;16946;49.984;10.672;2022-12-11T03:40:15;-0.80;99.90
30134;DHT22;16946;49.984;10.672;2022-12-11T03:40:48;-0.80;99.90
30134;DHT22;16946;49.984;10.672;2022-12-11T03:41:21;-0.80;99.90